Aérodrome :
LOGIN :

S'inscrire | Disclaimer

   EN    FR    IT 

 










Légende :    VFR   VFR Marginal   IFR   IFR Intensif   IFR Très Intensif
Visi : 
Plafond : 
>= 8 km
>= 3000ft
5 à 8 km
1000 à 3000 ft
1500m à 5 km
500 à 1000 ft
800 à 1500m
200 à 500 ft
< 800m
< 200 ft
Symboles :   Orages  Brouillard  Fortes neiges  Fortes précipitations  Vent > 20 kt
SIGMETs :   Divers  Orages  Givrage  Turbulence  Onde Orograph.  Cendres Volcan.






- Altitude de l'aérodrome : 83 ft
- Code IATA : LHR


EGLL - London Heathrow

DERNIER METAR :
  • 221520Z AUTO 27006KT 9999 BKN032 BKN039 BKN048 07/01 Q0993

METARs EXPIRÉS :
  • 221450Z AUTO 28006KT 9999 BKN038 OVC049 07/01 Q0993 NOSIG
  • 221420Z AUTO 27008KT 9999 FEW034 BKN042 08/01 Q0993 NOSIG
  • 221350Z AUTO 24009KT 9999 SCT047 07/M00 Q0993
  • 221320Z AUTO 25008KT 9999 NCD 07/M01 Q0993 NOSIG
  • 221250Z AUTO 26008KT 9999 NCD 07/00 Q0994

TAF TAF EGLL
Valide du 22 à 12h jusqu'au 23 à 18h UTC


221052Z 2212/2318 24007KT 9999 FEW040
TEMPO 2216/2223 -SHRA BKN012
PROB30
TEMPO 2217/2222 8000 -SHRASN
PROB40 2223/2310 4000 BR BKN003
BECMG 2310/2313 30010KT
PROB30
TEMPO 2310/2312 6000 BKN007
PROB30
TEMPO 2313/2317 8000 -SHRASN



MET'MAP, la Météo Aéronautique d'un coup d'oeil ! - Copyright ORBIFLY Décembre 2007 - Disclaimer

ORBIFLY MET'MAP TEAM :

Programmation & Développement : Alexandra Zaïnal
Sur une idée originale de : Baudouin d'Aumeries
Assistance à la programmation : Marc-Olivier Méhu
Soutien technique & logistique : Manuel Goepfert

Contact : metmap@orbifly.com




SOURCES & CREDITS :

   NOAA